sensor_id;sensor_type;location;lat;lon;timestamp;P1;durP1;ratioP1;P2;durP2;ratioP2
48211;SDS011;34000;48.772;9.162;2022-09-12T00:01:41;5.50;;;4.10;;
48211;SDS011;34000;48.772;9.162;2022-09-12T00:04:08;5.22;;;3.95;;
48211;SDS011;34000;48.772;9.162;2022-09-12T00:06:35;5.95;;;4.03;;
48211;SDS011;34000;48.772;9.162;2022-09-12T00:09:03;7.53;;;4.40;;
48211;SDS011;34000;48.772;9.162;2022-09-12T00:14:00;6.50;;;4.68;;
48211;SDS011;34000;48.772;9.162;2022-09-12T00:16:27;6.60;;;4.43;;
48211;SDS011;34000;48.772;9.162;2022-09-12T00:18:55;6.28;;;4.28;;
48211;SDS011;34000;48.772;9.162;2022-09-12T00:21:21;6.57;;;4.32;;
48211;SDS011;34000;48.772;9.162;2022-09-12T00:23:47;5.25;;;4.03;;
48211;SDS011;34000;48.772;9.162;2022-09-12T00:26:14;6.63;;;4.50;;
48211;SDS011;34000;48.772;9.162;2022-09-12T00:28:41;7.70;;;4.65;;
48211;SDS011;34000;48.772;9.162;2022-09-12T00:31:09;6.35;;;4.53;;
48211;SDS011;34000;48.772;9.162;2022-09-12T00:33:37;8.75;;;4.00;;
48211;SDS011;34000;48.772;9.162;2022-09-12T00:36:04;5.82;;;3.97;;
48211;SDS011;34000;48.772;9.162;2022-09-12T00:38:31;7.93;;;4.38;;
48211;SDS011;34000;48.772;9.162;2022-09-12T00:40:57;5.75;;;4.43;;
48211;SDS011;34000;48.772;9.162;2022-09-12T00:45:54;10.57;;;4.73;;
48211;SDS011;34000;48.772;9.162;2022-09-12T00:48:22;10.43;;;5.22;;
48211;SDS011;34000;48.772;9.162;2022-09-12T00:50:54;7.63;;;4.75;;
48211;SDS011;34000;48.772;9.162;2022-09-12T00:53:20;7.32;;;4.90;;
48211;SDS011;34000;48.772;9.162;2022-09-12T00:55:46;6.13;;;4.38;;
48211;SDS011;34000;48.772;9.162;2022-09-12T00:58:16;6.07;;;4.30;;
48211;SDS011;34000;48.772;9.162;2022-09-12T01:00:52;5.88;;;4.10;;
48211;SDS011;34000;48.772;9.162;2022-09-12T01:03:18;6.38;;;4.30;;
48211;SDS011;34000;48.772;9.162;2022-09-12T01:05:50;6.40;;;4.93;;
48211;SDS011;34000;48.772;9.162;2022-09-12T01:08:28;9.00;;;4.80;;
48211;SDS011;34000;48.772;9.162;2022-09-12T01:10:54;6.35;;;3.50;;
48211;SDS011;34000;48.772;9.162;2022-09-12T01:13:20;5.38;;;4.03;;
48211;SDS011;34000;48.772;9.162;2022-09-12T01:15:47;13.43;;;4.70;;
48211;SDS011;34000;48.772;9.162;2022-09-12T01:18:15;8.15;;;4.47;;
48211;SDS011;34000;48.772;9.162;2022-09-12T01:21:04;8.60;;;4.43;;
48211;SDS011;34000;48.772;9.162;2022-09-12T01:23:47;5.68;;;4.15;;
48211;SDS011;34000;48.772;9.162;2022-09-12T01:32:14;6.75;;;3.97;;
48211;SDS011;34000;48.772;9.162;2022-09-12T01:40:22;6.40;;;4.20;;
48211;SDS011;34000;48.772;9.162;2022-09-12T01:42:59;6.50;;;4.13;;
48211;SDS011;34000;48.772;9.162;2022-09-12T01:45:44;7.00;;;4.57;;
48211;SDS011;34000;48.772;9.162;2022-09-12T01:48:21;6.50;;;4.32;;
48211;SDS011;34000;48.772;9.162;2022-09-12T01:50:52;7.03;;;4.67;;
48211;SDS011;34000;48.772;9.162;2022-09-12T01:53:27;7.55;;;5.10;;
48211;SDS011;34000;48.772;9.162;2022-09-12T02:01:30;8.52;;;4.38;;
48211;SDS011;34000;48.772;9.162;2022-09-12T02:06:41;7.82;;;4.63;;
48211;SDS011;34000;48.772;9.162;2022-09-12T02:09:23;7.55;;;4.60;;
48211;SDS011;34000;48.772;9.162;2022-09-12T02:11:59;6.03;;;4.80;;
48211;SDS011;34000;48.772;9.162;2022-09-12T02:14:28;5.85;;;4.25;;
48211;SDS011;34000;48.772;9.162;2022-09-12T02:17:13;6.50;;;4.55;;
48211;SDS011;34000;48.772;9.162;2022-09-12T02:19:44;7.00;;;4.07;;
48211;SDS011;34000;48.772;9.162;2022-09-12T02:22:14;6.55;;;4.35;;
48211;SDS011;34000;48.772;9.162;2022-09-12T02:24:44;6.28;;;4.55;;
48211;SDS011;34000;48.772;9.162;2022-09-12T02:29:42;8.40;;;4.80;;
48211;SDS011;34000;48.772;9.162;2022-09-12T02:35:06;7.63;;;4.05;;
48211;SDS011;34000;48.772;9.162;2022-09-12T02:40:09;11.43;;;6.00;;
48211;SDS011;34000;48.772;9.162;2022-09-12T02:42:35;9.07;;;5.50;;
48211;SDS011;34000;48.772;9.162;2022-09-12T02:45:01;8.73;;;5.80;;
48211;SDS011;34000;48.772;9.162;2022-09-12T02:47:30;8.70;;;6.03;;
48211;SDS011;34000;48.772;9.162;2022-09-12T02:50:05;8.10;;;5.05;;
48211;SDS011;34000;48.772;9.162;2022-09-12T02:52:32;10.63;;;5.22;;
48211;SDS011;34000;48.772;9.162;2022-09-12T02:54:59;8.02;;;5.32;;
48211;SDS011;34000;48.772;9.162;2022-09-12T02:57:25;7.50;;;4.82;;
48211;SDS011;34000;48.772;9.162;2022-09-12T02:59:52;7.55;;;4.93;;
48211;SDS011;34000;48.772;9.162;2022-09-12T03:10:46;7.15;;;5.05;;
48211;SDS011;34000;48.772;9.162;2022-09-12T03:15:50;7.35;;;5.00;;
48211;SDS011;34000;48.772;9.162;2022-09-12T03:18:30;7.68;;;5.03;;
48211;SDS011;34000;48.772;9.162;2022-09-12T03:21:21;7.97;;;4.57;;
48211;SDS011;34000;48.772;9.162;2022-09-12T03:26:50;8.27;;;4.93;;
48211;SDS011;34000;48.772;9.162;2022-09-12T03:29:23;9.68;;;5.63;;
48211;SDS011;34000;48.772;9.162;2022-09-12T03:31:54;8.55;;;4.93;;
48211;SDS011;34000;48.772;9.162;2022-09-12T03:34:22;8.40;;;5.72;;
48211;SDS011;34000;48.772;9.162;2022-09-12T03:36:49;7.63;;;4.82;;
48211;SDS011;34000;48.772;9.162;2022-09-12T03:39:15;9.32;;;5.40;;
48211;SDS011;34000;48.772;9.162;2022-09-12T03:41:41;7.93;;;5.20;;
48211;SDS011;34000;48.772;9.162;2022-09-12T03:44:06;11.25;;;5.50;;
48211;SDS011;34000;48.772;9.162;2022-09-12T03:46:32;8.45;;;5.45;;
48211;SDS011;34000;48.772;9.162;2022-09-12T03:48:58;7.95;;;5.43;;
48211;SDS011;34000;48.772;9.162;2022-09-12T03:51:24;9.25;;;5.32;;
48211;SDS011;34000;48.772;9.162;2022-09-12T03:53:50;7.55;;;4.53;;
48211;SDS011;34000;48.772;9.162;2022-09-12T03:56:15;7.85;;;5.20;;
48211;SDS011;34000;48.772;9.162;2022-09-12T03:58:42;7.65;;;5.28;;
48211;SDS011;34000;48.772;9.162;2022-09-12T04:01:17;7.97;;;5.25;;
48211;SDS011;34000;48.772;9.162;2022-09-12T04:03:45;8.45;;;5.05;;
48211;SDS011;34000;48.772;9.162;2022-09-12T04:06:12;8.45;;;5.32;;
48211;SDS011;34000;48.772;9.162;2022-09-12T04:08:40;6.93;;;4.78;;
48211;SDS011;34000;48.772;9.162;2022-09-12T04:11:12;9.32;;;5.28;;
48211;SDS011;34000;48.772;9.162;2022-09-12T04:13:40;7.53;;;5.15;;
48211;SDS011;34000;48.772;9.162;2022-09-12T04:16:08;8.45;;;5.18;;
48211;SDS011;34000;48.772;9.162;2022-09-12T04:18:34;7.53;;;5.03;;
48211;SDS011;34000;48.772;9.162;2022-09-12T04:21:04;9.02;;;5.45;;
48211;SDS011;34000;48.772;9.162;2022-09-12T04:23:31;7.47;;;4.50;;
48211;SDS011;34000;48.772;9.162;2022-09-12T04:25:58;9.30;;;5.93;;
48211;SDS011;34000;48.772;9.162;2022-09-12T04:28:25;7.28;;;4.88;;
48211;SDS011;34000;48.772;9.162;2022-09-12T04:30:53;7.53;;;5.03;;
48211;SDS011;34000;48.772;9.162;2022-09-12T04:33:18;8.52;;;5.10;;
48211;SDS011;34000;48.772;9.162;2022-09-12T04:35:44;7.65;;;4.18;;
48211;SDS011;34000;48.772;9.162;2022-09-12T04:38:10;8.25;;;4.70;;
48211;SDS011;34000;48.772;9.162;2022-09-12T04:40:36;8.95;;;4.85;;
48211;SDS011;34000;48.772;9.162;2022-09-12T04:43:02;6.60;;;4.78;;
48211;SDS011;34000;48.772;9.162;2022-09-12T04:45:28;7.00;;;4.35;;
48211;SDS011;34000;48.772;9.162;2022-09-12T04:47:54;8.45;;;5.15;;
48211;SDS011;34000;48.772;9.162;2022-09-12T04:50:19;7.35;;;4.75;;
48211;SDS011;34000;48.772;9.162;2022-09-12T04:52:52;7.47;;;5.13;;
48211;SDS011;34000;48.772;9.162;2022-09-12T04:55:18;6.70;;;4.28;;
48211;SDS011;34000;48.772;9.162;2022-09-12T04:57:44;6.95;;;4.32;;
48211;SDS011;34000;48.772;9.162;2022-09-12T05:00:10;6.53;;;4.40;;
48211;SDS011;34000;48.772;9.162;2022-09-12T05:02:37;5.88;;;4.50;;
48211;SDS011;34000;48.772;9.162;2022-09-12T05:05:03;7.47;;;4.57;;
48211;SDS011;34000;48.772;9.162;2022-09-12T05:07:29;6.55;;;4.10;;
48211;SDS011;34000;48.772;9.162;2022-09-12T05:09:55;7.45;;;4.70;;
48211;SDS011;34000;48.772;9.162;2022-09-12T05:12:20;7.25;;;4.63;;
48211;SDS011;34000;48.772;9.162;2022-09-12T05:14:46;6.07;;;4.25;;
48211;SDS011;34000;48.772;9.162;2022-09-12T05:17:11;7.65;;;4.43;;
48211;SDS011;34000;48.772;9.162;2022-09-12T05:19:37;9.65;;;5.43;;
48211;SDS011;34000;48.772;9.162;2022-09-12T05:22:03;8.13;;;4.95;;
48211;SDS011;34000;48.772;9.162;2022-09-12T05:24:30;6.50;;;4.50;;
48211;SDS011;34000;48.772;9.162;2022-09-12T05:26:56;7.13;;;4.22;;
48211;SDS011;34000;48.772;9.162;2022-09-12T05:29:22;7.80;;;4.50;;
48211;SDS011;34000;48.772;9.162;2022-09-12T05:31:49;5.32;;;3.92;;
48211;SDS011;34000;48.772;9.162;2022-09-12T05:34:16;5.70;;;4.25;;
48211;SDS011;34000;48.772;9.162;2022-09-12T05:36:42;6.30;;;4.40;;
48211;SDS011;34000;48.772;9.162;2022-09-12T05:39:07;6.63;;;4.45;;
48211;SDS011;34000;48.772;9.162;2022-09-12T05:41:33;5.95;;;4.10;;
48211;SDS011;34000;48.772;9.162;2022-09-12T05:44:00;6.75;;;4.43;;
48211;SDS011;34000;48.772;9.162;2022-09-12T05:46:29;5.63;;;3.75;;
48211;SDS011;34000;48.772;9.162;2022-09-12T05:49:00;6.45;;;4.10;;
48211;SDS011;34000;48.772;9.162;2022-09-12T05:51:28;6.65;;;3.95;;
48211;SDS011;34000;48.772;9.162;2022-09-12T05:53:58;8.88;;;4.38;;
48211;SDS011;34000;48.772;9.162;2022-09-12T05:56:28;6.57;;;4.10;;
48211;SDS011;34000;48.772;9.162;2022-09-12T06:01:26;8.32;;;4.32;;
48211;SDS011;34000;48.772;9.162;2022-09-12T06:03:53;8.85;;;4.18;;
48211;SDS011;34000;48.772;9.162;2022-09-12T06:06:21;6.25;;;3.70;;
48211;SDS011;34000;48.772;9.162;2022-09-12T06:08:49;8.88;;;4.80;;
48211;SDS011;34000;48.772;9.162;2022-09-12T06:11:19;6.32;;;4.25;;
48211;SDS011;34000;48.772;9.162;2022-09-12T06:13:47;8.27;;;4.60;;
48211;SDS011;34000;48.772;9.162;2022-09-12T06:16:19;6.35;;;4.50;;
48211;SDS011;34000;48.772;9.162;2022-09-12T06:18:47;9.48;;;5.18;;
48211;SDS011;34000;48.772;9.162;2022-09-12T06:21:14;9.40;;;4.90;;
48211;SDS011;34000;48.772;9.162;2022-09-12T06:23:40;9.50;;;5.00;;
48211;SDS011;34000;48.772;9.162;2022-09-12T06:26:08;9.40;;;4.78;;
48211;SDS011;34000;48.772;9.162;2022-09-12T06:28:35;11.50;;;5.10;;
48211;SDS011;34000;48.772;9.162;2022-09-12T06:31:09;8.63;;;5.07;;
48211;SDS011;34000;48.772;9.162;2022-09-12T06:33:37;9.13;;;5.60;;
48211;SDS011;34000;48.772;9.162;2022-09-12T06:36:05;9.40;;;5.82;;
48211;SDS011;34000;48.772;9.162;2022-09-12T06:38:32;7.25;;;5.03;;
48211;SDS011;34000;48.772;9.162;2022-09-12T06:40:58;8.45;;;4.88;;
48211;SDS011;34000;48.772;9.162;2022-09-12T06:43:25;8.90;;;5.53;;
48211;SDS011;34000;48.772;9.162;2022-09-12T06:45:52;8.68;;;5.40;;
48211;SDS011;34000;48.772;9.162;2022-09-12T06:48:18;7.43;;;4.93;;
48211;SDS011;34000;48.772;9.162;2022-09-12T06:50:53;12.18;;;5.45;;
48211;SDS011;34000;48.772;9.162;2022-09-12T06:53:20;7.88;;;4.75;;
48211;SDS011;34000;48.772;9.162;2022-09-12T06:55:45;7.95;;;5.40;;
48211;SDS011;34000;48.772;9.162;2022-09-12T06:58:12;8.50;;;5.20;;
48211;SDS011;34000;48.772;9.162;2022-09-12T07:00:37;8.35;;;5.70;;
48211;SDS011;34000;48.772;9.162;2022-09-12T07:03:04;7.78;;;5.13;;
48211;SDS011;34000;48.772;9.162;2022-09-12T07:05:29;7.50;;;4.65;;
48211;SDS011;34000;48.772;9.162;2022-09-12T07:07:57;7.93;;;4.60;;
48211;SDS011;34000;48.772;9.162;2022-09-12T07:10:23;9.38;;;4.85;;
48211;SDS011;34000;48.772;9.162;2022-09-12T07:12:49;9.70;;;5.05;;
48211;SDS011;34000;48.772;9.162;2022-09-12T07:15:15;6.78;;;4.22;;
48211;SDS011;34000;48.772;9.162;2022-09-12T07:17:40;6.43;;;4.38;;
48211;SDS011;34000;48.772;9.162;2022-09-12T07:20:06;8.02;;;4.32;;
48211;SDS011;34000;48.772;9.162;2022-09-12T07:22:32;7.72;;;4.63;;
48211;SDS011;34000;48.772;9.162;2022-09-12T07:24:57;5.65;;;3.88;;
48211;SDS011;34000;48.772;9.162;2022-09-12T07:27:23;4.72;;;3.75;;
48211;SDS011;34000;48.772;9.162;2022-09-12T07:29:49;6.82;;;4.47;;
48211;SDS011;34000;48.772;9.162;2022-09-12T07:32:14;5.80;;;3.80;;
48211;SDS011;34000;48.772;9.162;2022-09-12T07:34:40;7.97;;;3.50;;
48211;SDS011;34000;48.772;9.162;2022-09-12T07:37:05;5.00;;;3.42;;
48211;SDS011;34000;48.772;9.162;2022-09-12T07:39:31;4.28;;;3.50;;
48211;SDS011;34000;48.772;9.162;2022-09-12T07:41:57;6.97;;;4.32;;
48211;SDS011;34000;48.772;9.162;2022-09-12T07:44:24;3.83;;;3.30;;
48211;SDS011;34000;48.772;9.162;2022-09-12T07:46:50;3.47;;;3.00;;
48211;SDS011;34000;48.772;9.162;2022-09-12T07:49:16;6.97;;;4.15;;
48211;SDS011;34000;48.772;9.162;2022-09-12T07:51:41;4.47;;;3.45;;
48211;SDS011;34000;48.772;9.162;2022-09-12T07:54:07;5.03;;;3.33;;
48211;SDS011;34000;48.772;9.162;2022-09-12T07:56:33;2.92;;;2.25;;
48211;SDS011;34000;48.772;9.162;2022-09-12T07:58:59;3.42;;;2.95;;
48211;SDS011;34000;48.772;9.162;2022-09-12T08:01:25;3.53;;;2.90;;
48211;SDS011;34000;48.772;9.162;2022-09-12T08:03:57;3.88;;;3.45;;
48211;SDS011;34000;48.772;9.162;2022-09-12T08:06:24;3.83;;;2.58;;
48211;SDS011;34000;48.772;9.162;2022-09-12T08:08:53;3.20;;;2.63;;
48211;SDS011;34000;48.772;9.162;2022-09-12T08:11:20;3.55;;;2.42;;
48211;SDS011;34000;48.772;9.162;2022-09-12T08:13:47;4.80;;;3.20;;
48211;SDS011;34000;48.772;9.162;2022-09-12T08:16:15;4.55;;;2.95;;
48211;SDS011;34000;48.772;9.162;2022-09-12T08:18:43;7.28;;;3.17;;
48211;SDS011;34000;48.772;9.162;2022-09-12T08:21:10;3.78;;;2.85;;
48211;SDS011;34000;48.772;9.162;2022-09-12T08:24:03;4.00;;;2.78;;
48211;SDS011;34000;48.772;9.162;2022-09-12T08:26:30;5.00;;;3.70;;
48211;SDS011;34000;48.772;9.162;2022-09-12T08:28:57;7.13;;;3.20;;
48211;SDS011;34000;48.772;9.162;2022-09-12T08:31:23;5.78;;;4.18;;
48211;SDS011;34000;48.772;9.162;2022-09-12T08:33:50;3.42;;;2.88;;
48211;SDS011;34000;48.772;9.162;2022-09-12T08:36:19;4.30;;;2.90;;
48211;SDS011;34000;48.772;9.162;2022-09-12T08:38:48;4.13;;;3.08;;
48211;SDS011;34000;48.772;9.162;2022-09-12T08:52:28;3.13;;;2.83;;
48211;SDS011;34000;48.772;9.162;2022-09-12T08:55:01;5.53;;;3.90;;
48211;SDS011;34000;48.772;9.162;2022-09-12T08:57:28;3.75;;;2.85;;
48211;SDS011;34000;48.772;9.162;2022-09-12T08:59:54;4.93;;;2.70;;
48211;SDS011;34000;48.772;9.162;2022-09-12T09:04:55;4.47;;;2.80;;
48211;SDS011;34000;48.772;9.162;2022-09-12T09:13:15;6.68;;;3.60;;
48211;SDS011;34000;48.772;9.162;2022-09-12T09:16:07;6.15;;;4.15;;
48211;SDS011;34000;48.772;9.162;2022-09-12T09:18:42;3.55;;;2.83;;
48211;SDS011;34000;48.772;9.162;2022-09-12T09:21:25;3.30;;;2.80;;
48211;SDS011;34000;48.772;9.162;2022-09-12T09:24:15;6.40;;;4.32;;
48211;SDS011;34000;48.772;9.162;2022-09-12T09:29:38;4.93;;;4.40;;
48211;SDS011;34000;48.772;9.162;2022-09-12T09:32:11;14.15;;;11.23;;
48211;SDS011;34000;48.772;9.162;2022-09-12T09:34:42;4.90;;;4.00;;
48211;SDS011;34000;48.772;9.162;2022-09-12T09:40:00;5.00;;;3.80;;
48211;SDS011;34000;48.772;9.162;2022-09-12T09:45:30;4.78;;;3.28;;
48211;SDS011;34000;48.772;9.162;2022-09-12T09:48:00;1.75;;;1.60;;
48211;SDS011;34000;48.772;9.162;2022-09-12T09:50:34;1.67;;;1.48;;
48211;SDS011;34000;48.772;9.162;2022-09-12T09:53:01;3.03;;;1.40;;
48211;SDS011;34000;48.772;9.162;2022-09-12T09:55:37;2.33;;;1.27;;
48211;SDS011;34000;48.772;9.162;2022-09-12T09:58:05;1.30;;;1.20;;
48211;SDS011;34000;48.772;9.162;2022-09-12T10:00:32;1.30;;;1.20;;
48211;SDS011;34000;48.772;9.162;2022-09-12T10:05:55;1.20;;;1.10;;
48211;SDS011;34000;48.772;9.162;2022-09-12T10:10:58;3.20;;;2.80;;
48211;SDS011;34000;48.772;9.162;2022-09-12T10:13:29;1.25;;;1.15;;
48211;SDS011;34000;48.772;9.162;2022-09-12T10:16:06;1.27;;;1.10;;
48211;SDS011;34000;48.772;9.162;2022-09-12T10:18:59;1.10;;;1.00;;
48211;SDS011;34000;48.772;9.162;2022-09-12T10:21:38;0.80;;;0.80;;
48211;SDS011;34000;48.772;9.162;2022-09-12T10:24:23;0.85;;;0.85;;
48211;SDS011;34000;48.772;9.162;2022-09-12T10:26:57;1.48;;;1.20;;
48211;SDS011;34000;48.772;9.162;2022-09-12T10:29:39;1.30;;;1.20;;
48211;SDS011;34000;48.772;9.162;2022-09-12T10:32:10;1.15;;;1.05;;
48211;SDS011;34000;48.772;9.162;2022-09-12T10:34:41;1.05;;;0.90;;
48211;SDS011;34000;48.772;9.162;2022-09-12T10:37:31;1.38;;;1.27;;
48211;SDS011;34000;48.772;9.162;2022-09-12T10:39:57;1.48;;;1.38;;
48211;SDS011;34000;48.772;9.162;2022-09-12T10:47:56;1.13;;;1.00;;
48211;SDS011;34000;48.772;9.162;2022-09-12T10:52:50;0.73;;;0.73;;
48211;SDS011;34000;48.772;9.162;2022-09-12T10:55:17;1.48;;;1.35;;
48211;SDS011;34000;48.772;9.162;2022-09-12T11:00:36;1.10;;;0.88;;
48211;SDS011;34000;48.772;9.162;2022-09-12T11:03:28;0.88;;;0.88;;
48211;SDS011;34000;48.772;9.162;2022-09-12T11:06:11;3.25;;;2.83;;
48211;SDS011;34000;48.772;9.162;2022-09-12T11:16:59;1.27;;;1.17;;
48211;SDS011;34000;48.772;9.162;2022-09-12T11:19:31;0.95;;;0.90;;
48211;SDS011;34000;48.772;9.162;2022-09-12T11:25:04;1.23;;;1.08;;
48211;SDS011;34000;48.772;9.162;2022-09-12T11:30:21;1.00;;;0.90;;
48211;SDS011;34000;48.772;9.162;2022-09-12T11:40:31;0.98;;;0.88;;
48211;SDS011;34000;48.772;9.162;2022-09-12T11:46:14;0.60;;;0.60;;
48211;SDS011;34000;48.772;9.162;2022-09-12T11:49:05;0.70;;;0.70;;
48211;SDS011;34000;48.772;9.162;2022-09-12T11:51:46;0.70;;;0.70;;
48211;SDS011;34000;48.772;9.162;2022-09-12T11:54:37;1.50;;;1.38;;
48211;SDS011;34000;48.772;9.162;2022-09-12T12:02:26;0.90;;;0.90;;
48211;SDS011;34000;48.772;9.162;2022-09-12T12:07:42;0.40;;;0.40;;
48211;SDS011;34000;48.772;9.162;2022-09-12T12:12:56;0.60;;;0.60;;
48211;SDS011;34000;48.772;9.162;2022-09-12T12:15:24;1.00;;;0.80;;
48211;SDS011;34000;48.772;9.162;2022-09-12T12:18:12;0.70;;;0.70;;
48211;SDS011;34000;48.772;9.162;2022-09-12T12:20:46;0.77;;;0.77;;
48211;SDS011;34000;48.772;9.162;2022-09-12T12:25:52;1.17;;;0.73;;
48211;SDS011;34000;48.772;9.162;2022-09-12T12:31:15;0.77;;;0.77;;
48211;SDS011;34000;48.772;9.162;2022-09-12T12:36:13;0.68;;;0.60;;
48211;SDS011;34000;48.772;9.162;2022-09-12T12:39:53;0.75;;;0.60;;
48211;SDS011;34000;48.772;9.162;2022-09-12T12:42:00;0.60;;;0.60;;
48211;SDS011;34000;48.772;9.162;2022-09-12T12:49:58;0.63;;;0.63;;
48211;SDS011;34000;48.772;9.162;2022-09-12T12:52:50;0.65;;;0.65;;
48211;SDS011;34000;48.772;9.162;2022-09-12T12:55:25;0.60;;;0.60;;
48211;SDS011;34000;48.772;9.162;2022-09-12T12:58:00;0.60;;;0.60;;
48211;SDS011;34000;48.772;9.162;2022-09-12T13:03:05;0.50;;;0.50;;
48211;SDS011;34000;48.772;9.162;2022-09-12T13:05:50;0.70;;;0.70;;
48211;SDS011;34000;48.772;9.162;2022-09-12T13:08:25;0.85;;;0.85;;
48211;SDS011;34000;48.772;9.162;2022-09-12T13:10:58;0.90;;;0.80;;
48211;SDS011;34000;48.772;9.162;2022-09-12T13:15:58;0.77;;;0.77;;
48211;SDS011;34000;48.772;9.162;2022-09-12T13:18:27;0.82;;;0.70;;
48211;SDS011;34000;48.772;9.162;2022-09-12T13:23:58;1.30;;;0.65;;
48211;SDS011;34000;48.772;9.162;2022-09-12T13:29:15;0.70;;;0.70;;
48211;SDS011;34000;48.772;9.162;2022-09-12T13:31:47;0.80;;;0.80;;
48211;SDS011;34000;48.772;9.162;2022-09-12T13:34:20;0.75;;;0.75;;
48211;SDS011;34000;48.772;9.162;2022-09-12T13:36:56;0.55;;;0.52;;
48211;SDS011;34000;48.772;9.162;2022-09-12T13:39:46;0.80;;;0.65;;
48211;SDS011;34000;48.772;9.162;2022-09-12T13:42:26;1.15;;;0.80;;
48211;SDS011;34000;48.772;9.162;2022-09-12T13:45:18;0.80;;;0.70;;
48211;SDS011;34000;48.772;9.162;2022-09-12T13:47:45;0.70;;;0.70;;
48211;SDS011;34000;48.772;9.162;2022-09-12T13:50:25;0.65;;;0.65;;
48211;SDS011;34000;48.772;9.162;2022-09-12T13:53:03;0.70;;;0.65;;
48211;SDS011;34000;48.772;9.162;2022-09-12T13:55:35;1.02;;;0.70;;
48211;SDS011;34000;48.772;9.162;2022-09-12T13:58:04;0.57;;;0.57;;
48211;SDS011;34000;48.772;9.162;2022-09-12T14:03:40;0.70;;;0.70;;
48211;SDS011;34000;48.772;9.162;2022-09-12T14:06:49;1.55;;;0.68;;
48211;SDS011;34000;48.772;9.162;2022-09-12T14:12:03;1.52;;;0.70;;
48211;SDS011;34000;48.772;9.162;2022-09-12T14:14:39;0.60;;;0.60;;
48211;SDS011;34000;48.772;9.162;2022-09-12T14:17:17;0.70;;;0.70;;
48211;SDS011;34000;48.772;9.162;2022-09-12T14:20:00;1.60;;;0.70;;
48211;SDS011;34000;48.772;9.162;2022-09-12T14:22:30;0.70;;;0.70;;
48211;SDS011;34000;48.772;9.162;2022-09-12T14:24:56;0.70;;;0.70;;
48211;SDS011;34000;48.772;9.162;2022-09-12T14:27:25;1.00;;;0.70;;
48211;SDS011;34000;48.772;9.162;2022-09-12T14:30:03;1.73;;;1.00;;
48211;SDS011;34000;48.772;9.162;2022-09-12T14:32:33;10.98;;;5.55;;
48211;SDS011;34000;48.772;9.162;2022-09-12T14:37:45;2.38;;;1.33;;
48211;SDS011;34000;48.772;9.162;2022-09-12T14:40:20;1.10;;;0.80;;
48211;SDS011;34000;48.772;9.162;2022-09-12T14:42:48;4.63;;;2.10;;
48211;SDS011;34000;48.772;9.162;2022-09-12T14:45:16;0.95;;;0.70;;
48211;SDS011;34000;48.772;9.162;2022-09-12T14:47:49;3.28;;;0.90;;
48211;SDS011;34000;48.772;9.162;2022-09-12T14:50:18;1.88;;;0.88;;
48211;SDS011;34000;48.772;9.162;2022-09-12T14:53:35;0.73;;;0.73;;
48211;SDS011;34000;48.772;9.162;2022-09-12T14:55:42;1.65;;;0.70;;
48211;SDS011;34000;48.772;9.162;2022-09-12T15:01:01;0.77;;;0.77;;
48211;SDS011;34000;48.772;9.162;2022-09-12T15:06:20;0.70;;;0.70;;
48211;SDS011;34000;48.772;9.162;2022-09-12T15:09:02;1.38;;;0.80;;
48211;SDS011;34000;48.772;9.162;2022-09-12T15:11:32;1.50;;;0.80;;
48211;SDS011;34000;48.772;9.162;2022-09-12T15:13:57;0.82;;;0.75;;
48211;SDS011;34000;48.772;9.162;2022-09-12T15:16:30;0.90;;;0.90;;
48211;SDS011;34000;48.772;9.162;2022-09-12T15:18:55;1.30;;;0.75;;
48211;SDS011;34000;48.772;9.162;2022-09-12T15:21:21;0.80;;;0.80;;
48211;SDS011;34000;48.772;9.162;2022-09-12T15:23:47;0.77;;;0.73;;
48211;SDS011;34000;48.772;9.162;2022-09-12T15:26:15;0.90;;;0.63;;
48211;SDS011;34000;48.772;9.162;2022-09-12T15:28:46;0.68;;;0.60;;
48211;SDS011;34000;48.772;9.162;2022-09-12T15:31:19;1.25;;;0.85;;
48211;SDS011;34000;48.772;9.162;2022-09-12T15:33:46;2.15;;;0.88;;
48211;SDS011;34000;48.772;9.162;2022-09-12T15:36:13;3.45;;;1.88;;
48211;SDS011;34000;48.772;9.162;2022-09-12T15:38:41;0.88;;;0.88;;
48211;SDS011;34000;48.772;9.162;2022-09-12T15:41:11;1.25;;;0.75;;
48211;SDS011;34000;48.772;9.162;2022-09-12T15:43:40;1.40;;;0.70;;
48211;SDS011;34000;48.772;9.162;2022-09-12T15:46:07;1.15;;;0.80;;
48211;SDS011;34000;48.772;9.162;2022-09-12T15:48:35;0.90;;;0.70;;
48211;SDS011;34000;48.772;9.162;2022-09-12T15:51:01;0.80;;;0.80;;
48211;SDS011;34000;48.772;9.162;2022-09-12T15:53:28;1.02;;;0.82;;
48211;SDS011;34000;48.772;9.162;2022-09-12T15:55:54;0.80;;;0.80;;
48211;SDS011;34000;48.772;9.162;2022-09-12T15:58:20;1.00;;;0.90;;
48211;SDS011;34000;48.772;9.162;2022-09-12T16:00:46;0.70;;;0.70;;
48211;SDS011;34000;48.772;9.162;2022-09-12T16:03:22;2.95;;;1.88;;
48211;SDS011;34000;48.772;9.162;2022-09-12T16:05:49;2.50;;;1.05;;
48211;SDS011;34000;48.772;9.162;2022-09-12T16:08:20;0.80;;;0.80;;
48211;SDS011;34000;48.772;9.162;2022-09-12T16:10:46;2.00;;;1.23;;
48211;SDS011;34000;48.772;9.162;2022-09-12T16:13:16;1.00;;;0.90;;
48211;SDS011;34000;48.772;9.162;2022-09-12T16:15:42;2.80;;;1.70;;
48211;SDS011;34000;48.772;9.162;2022-09-12T16:18:07;3.38;;;1.55;;
48211;SDS011;34000;48.772;9.162;2022-09-12T16:20:33;0.80;;;0.80;;
48211;SDS011;34000;48.772;9.162;2022-09-12T16:22:59;0.85;;;0.85;;
48211;SDS011;34000;48.772;9.162;2022-09-12T16:25:24;0.98;;;0.95;;
48211;SDS011;34000;48.772;9.162;2022-09-12T16:27:50;1.42;;;1.02;;
48211;SDS011;34000;48.772;9.162;2022-09-12T16:30:16;1.33;;;0.90;;
48211;SDS011;34000;48.772;9.162;2022-09-12T16:32:41;1.58;;;0.70;;
48211;SDS011;34000;48.772;9.162;2022-09-12T16:35:07;1.85;;;1.00;;
48211;SDS011;34000;48.772;9.162;2022-09-12T16:37:33;0.70;;;0.70;;
48211;SDS011;34000;48.772;9.162;2022-09-12T16:39:59;1.10;;;0.90;;
48211;SDS011;34000;48.772;9.162;2022-09-12T16:42:26;0.90;;;0.90;;
48211;SDS011;34000;48.772;9.162;2022-09-12T16:44:51;0.90;;;0.90;;
48211;SDS011;34000;48.772;9.162;2022-09-12T16:47:17;1.10;;;1.00;;
48211;SDS011;34000;48.772;9.162;2022-09-12T16:49:42;0.80;;;0.80;;
48211;SDS011;34000;48.772;9.162;2022-09-12T16:52:08;0.88;;;0.88;;
48211;SDS011;34000;48.772;9.162;2022-09-12T16:54:34;1.20;;;1.10;;
48211;SDS011;34000;48.772;9.162;2022-09-12T16:56:59;1.63;;;1.10;;
48211;SDS011;34000;48.772;9.162;2022-09-12T16:59:25;3.50;;;1.67;;
48211;SDS011;34000;48.772;9.162;2022-09-12T17:01:51;1.45;;;1.00;;
48211;SDS011;34000;48.772;9.162;2022-09-12T17:04:16;0.65;;;0.65;;
48211;SDS011;34000;48.772;9.162;2022-09-12T17:06:42;1.92;;;0.90;;
48211;SDS011;34000;48.772;9.162;2022-09-12T17:09:08;1.48;;;1.23;;
48211;SDS011;34000;48.772;9.162;2022-09-12T17:11:35;6.22;;;2.60;;
48211;SDS011;34000;48.772;9.162;2022-09-12T17:14:03;2.70;;;1.75;;
48211;SDS011;34000;48.772;9.162;2022-09-12T17:16:32;10.27;;;4.20;;
48211;SDS011;34000;48.772;9.162;2022-09-12T17:18:59;3.22;;;1.83;;
48211;SDS011;34000;48.772;9.162;2022-09-12T17:21:24;1.13;;;1.02;;
48211;SDS011;34000;48.772;9.162;2022-09-12T17:23:50;8.68;;;3.90;;
48211;SDS011;34000;48.772;9.162;2022-09-12T17:26:16;8.40;;;3.65;;
48211;SDS011;34000;48.772;9.162;2022-09-12T17:28:41;2.10;;;1.25;;
48211;SDS011;34000;48.772;9.162;2022-09-12T17:31:09;1.75;;;1.20;;
48211;SDS011;34000;48.772;9.162;2022-09-12T17:33:36;1.73;;;1.17;;
48211;SDS011;34000;48.772;9.162;2022-09-12T17:36:03;1.17;;;0.82;;
48211;SDS011;34000;48.772;9.162;2022-09-12T17:38:41;1.58;;;1.02;;
48211;SDS011;34000;48.772;9.162;2022-09-12T17:41:08;1.60;;;1.00;;
48211;SDS011;34000;48.772;9.162;2022-09-12T17:43:35;3.28;;;2.05;;
48211;SDS011;34000;48.772;9.162;2022-09-12T17:46:02;25.45;;;11.15;;
48211;SDS011;34000;48.772;9.162;2022-09-12T17:48:28;4.72;;;2.33;;
48211;SDS011;34000;48.772;9.162;2022-09-12T17:50:54;1.42;;;1.25;;
48211;SDS011;34000;48.772;9.162;2022-09-12T17:53:20;3.53;;;1.33;;